sensor_id;sensor_type;location;lat;lon;timestamp;P1;durP1;ratioP1;P2;durP2;ratioP2
62362;SDS011;48396;48.426;1.500;2023-05-19T00:00:14;9.07;;;4.72;;
62362;SDS011;48396;48.426;1.500;2023-05-19T00:02:41;10.77;;;4.70;;
62362;SDS011;48396;48.426;1.500;2023-05-19T00:05:08;11.23;;;4.40;;
62362;SDS011;48396;48.426;1.500;2023-05-19T00:07:34;10.82;;;4.78;;
62362;SDS011;48396;48.426;1.500;2023-05-19T00:10:02;9.52;;;4.20;;
62362;SDS011;48396;48.426;1.500;2023-05-19T00:12:28;10.30;;;4.47;;
62362;SDS011;48396;48.426;1.500;2023-05-19T00:14:54;10.45;;;4.53;;
62362;SDS011;48396;48.426;1.500;2023-05-19T00:17:20;14.23;;;4.75;;
62362;SDS011;48396;48.426;1.500;2023-05-19T00:19:46;10.13;;;4.72;;
62362;SDS011;48396;48.426;1.500;2023-05-19T00:22:11;13.57;;;5.30;;
62362;SDS011;48396;48.426;1.500;2023-05-19T00:24:38;12.18;;;4.38;;
62362;SDS011;48396;48.426;1.500;2023-05-19T00:27:03;12.65;;;4.78;;
62362;SDS011;48396;48.426;1.500;2023-05-19T00:29:29;12.98;;;4.60;;
62362;SDS011;48396;48.426;1.500;2023-05-19T00:31:55;12.38;;;4.45;;
62362;SDS011;48396;48.426;1.500;2023-05-19T00:34:20;14.45;;;5.28;;
62362;SDS011;48396;48.426;1.500;2023-05-19T00:36:46;11.88;;;5.50;;
62362;SDS011;48396;48.426;1.500;2023-05-19T00:39:11;10.07;;;4.97;;
62362;SDS011;48396;48.426;1.500;2023-05-19T00:41:37;13.50;;;5.03;;
62362;SDS011;48396;48.426;1.500;2023-05-19T00:44:03;9.68;;;4.28;;
62362;SDS011;48396;48.426;1.500;2023-05-19T00:46:28;12.77;;;5.22;;
62362;SDS011;48396;48.426;1.500;2023-05-19T00:48:54;11.93;;;4.88;;
62362;SDS011;48396;48.426;1.500;2023-05-19T00:51:20;15.98;;;5.63;;
62362;SDS011;48396;48.426;1.500;2023-05-19T00:53:47;14.07;;;5.13;;
62362;SDS011;48396;48.426;1.500;2023-05-19T00:56:16;12.73;;;5.10;;
62362;SDS011;48396;48.426;1.500;2023-05-19T00:58:42;13.82;;;4.90;;
62362;SDS011;48396;48.426;1.500;2023-05-19T01:01:08;13.15;;;5.50;;
62362;SDS011;48396;48.426;1.500;2023-05-19T01:03:36;11.57;;;5.10;;
62362;SDS011;48396;48.426;1.500;2023-05-19T01:06:03;15.98;;;5.30;;
62362;SDS011;48396;48.426;1.500;2023-05-19T01:08:33;11.18;;;5.18;;
62362;SDS011;48396;48.426;1.500;2023-05-19T01:11:00;18.10;;;5.63;;
62362;SDS011;48396;48.426;1.500;2023-05-19T01:13:26;13.70;;;5.43;;
62362;SDS011;48396;48.426;1.500;2023-05-19T01:16:12;13.98;;;5.65;;
62362;SDS011;48396;48.426;1.500;2023-05-19T01:32:43;16.08;;;5.70;;
62362;SDS011;48396;48.426;1.500;2023-05-19T01:35:11;12.68;;;5.53;;
62362;SDS011;48396;48.426;1.500;2023-05-19T01:37:39;17.52;;;6.65;;
62362;SDS011;48396;48.426;1.500;2023-05-19T01:40:06;14.82;;;5.75;;
62362;SDS011;48396;48.426;1.500;2023-05-19T01:42:32;15.68;;;5.50;;
62362;SDS011;48396;48.426;1.500;2023-05-19T01:45:02;13.10;;;5.93;;
62362;SDS011;48396;48.426;1.500;2023-05-19T01:47:31;18.90;;;5.82;;
62362;SDS011;48396;48.426;1.500;2023-05-19T01:49:58;14.05;;;5.85;;
62362;SDS011;48396;48.426;1.500;2023-05-19T01:52:24;17.00;;;6.45;;
62362;SDS011;48396;48.426;1.500;2023-05-19T01:54:50;15.40;;;6.43;;
62362;SDS011;48396;48.426;1.500;2023-05-19T02:02:24;15.27;;;6.05;;
62362;SDS011;48396;48.426;1.500;2023-05-19T02:05:00;15.20;;;6.55;;
62362;SDS011;48396;48.426;1.500;2023-05-19T02:07:47;16.45;;;6.00;;
62362;SDS011;48396;48.426;1.500;2023-05-19T02:10:21;15.23;;;6.18;;
62362;SDS011;48396;48.426;1.500;2023-05-19T02:12:51;17.13;;;5.85;;
62362;SDS011;48396;48.426;1.500;2023-05-19T02:15:23;16.10;;;6.65;;
62362;SDS011;48396;48.426;1.500;2023-05-19T02:17:50;16.05;;;7.03;;
62362;SDS011;48396;48.426;1.500;2023-05-19T02:20:19;18.48;;;6.65;;
62362;SDS011;48396;48.426;1.500;2023-05-19T02:22:46;16.83;;;6.80;;
62362;SDS011;48396;48.426;1.500;2023-05-19T02:25:12;17.70;;;7.15;;
62362;SDS011;48396;48.426;1.500;2023-05-19T02:27:38;17.65;;;7.07;;
62362;SDS011;48396;48.426;1.500;2023-05-19T02:30:06;17.05;;;6.80;;
62362;SDS011;48396;48.426;1.500;2023-05-19T02:32:32;20.38;;;7.80;;
62362;SDS011;48396;48.426;1.500;2023-05-19T02:34:58;17.77;;;6.85;;
62362;SDS011;48396;48.426;1.500;2023-05-19T02:37:24;16.83;;;6.75;;
62362;SDS011;48396;48.426;1.500;2023-05-19T02:39:52;18.38;;;7.28;;
62362;SDS011;48396;48.426;1.500;2023-05-19T02:42:18;17.33;;;7.22;;
62362;SDS011;48396;48.426;1.500;2023-05-19T02:44:44;17.38;;;6.93;;
62362;SDS011;48396;48.426;1.500;2023-05-19T02:47:10;19.15;;;7.72;;
62362;SDS011;48396;48.426;1.500;2023-05-19T02:49:36;17.83;;;7.25;;
62362;SDS011;48396;48.426;1.500;2023-05-19T02:52:02;17.88;;;7.88;;
62362;SDS011;48396;48.426;1.500;2023-05-19T02:54:29;18.08;;;7.05;;
62362;SDS011;48396;48.426;1.500;2023-05-19T02:56:55;19.38;;;7.50;;
62362;SDS011;48396;48.426;1.500;2023-05-19T02:59:20;22.20;;;8.38;;
62362;SDS011;48396;48.426;1.500;2023-05-19T03:01:47;17.63;;;7.55;;
62362;SDS011;48396;48.426;1.500;2023-05-19T03:04:12;20.88;;;7.97;;
62362;SDS011;48396;48.426;1.500;2023-05-19T03:06:38;18.05;;;8.00;;
62362;SDS011;48396;48.426;1.500;2023-05-19T03:09:04;19.58;;;7.47;;
62362;SDS011;48396;48.426;1.500;2023-05-19T03:11:30;18.75;;;7.72;;
62362;SDS011;48396;48.426;1.500;2023-05-19T03:13:55;18.60;;;7.85;;
62362;SDS011;48396;48.426;1.500;2023-05-19T03:16:22;19.05;;;7.70;;
62362;SDS011;48396;48.426;1.500;2023-05-19T03:18:48;20.20;;;8.13;;
62362;SDS011;48396;48.426;1.500;2023-05-19T03:21:14;18.98;;;8.23;;
62362;SDS011;48396;48.426;1.500;2023-05-19T03:23:39;18.60;;;7.35;;
62362;SDS011;48396;48.426;1.500;2023-05-19T03:26:05;18.23;;;7.82;;
62362;SDS011;48396;48.426;1.500;2023-05-19T03:28:30;19.30;;;7.47;;
62362;SDS011;48396;48.426;1.500;2023-05-19T03:30:56;17.88;;;7.50;;
62362;SDS011;48396;48.426;1.500;2023-05-19T03:36:06;18.20;;;7.75;;
62362;SDS011;48396;48.426;1.500;2023-05-19T03:38:31;19.88;;;7.95;;
62362;SDS011;48396;48.426;1.500;2023-05-19T03:40:57;20.48;;;8.30;;
62362;SDS011;48396;48.426;1.500;2023-05-19T03:43:23;19.90;;;7.90;;
62362;SDS011;48396;48.426;1.500;2023-05-19T03:45:48;18.17;;;8.23;;
62362;SDS011;48396;48.426;1.500;2023-05-19T03:48:14;17.95;;;7.18;;
62362;SDS011;48396;48.426;1.500;2023-05-19T03:50:40;19.52;;;8.00;;
62362;SDS011;48396;48.426;1.500;2023-05-19T03:53:06;21.65;;;8.45;;
62362;SDS011;48396;48.426;1.500;2023-05-19T03:55:32;20.80;;;8.25;;
62362;SDS011;48396;48.426;1.500;2023-05-19T03:57:57;22.92;;;8.52;;
62362;SDS011;48396;48.426;1.500;2023-05-19T04:00:23;19.92;;;8.43;;
62362;SDS011;48396;48.426;1.500;2023-05-19T04:02:49;19.27;;;7.50;;
62362;SDS011;48396;48.426;1.500;2023-05-19T04:05:15;20.10;;;8.40;;
62362;SDS011;48396;48.426;1.500;2023-05-19T04:07:41;19.35;;;8.35;;
62362;SDS011;48396;48.426;1.500;2023-05-19T04:10:07;20.05;;;8.05;;
62362;SDS011;48396;48.426;1.500;2023-05-19T04:12:33;18.08;;;7.85;;
62362;SDS011;48396;48.426;1.500;2023-05-19T04:14:58;20.67;;;7.75;;
62362;SDS011;48396;48.426;1.500;2023-05-19T04:17:24;23.30;;;8.45;;
62362;SDS011;48396;48.426;1.500;2023-05-19T04:19:51;20.58;;;8.60;;
62362;SDS011;48396;48.426;1.500;2023-05-19T04:22:17;18.15;;;8.38;;
62362;SDS011;48396;48.426;1.500;2023-05-19T04:24:42;19.40;;;8.55;;
62362;SDS011;48396;48.426;1.500;2023-05-19T04:27:08;20.80;;;7.70;;
62362;SDS011;48396;48.426;1.500;2023-05-19T04:29:36;19.83;;;8.50;;
62362;SDS011;48396;48.426;1.500;2023-05-19T04:32:03;22.90;;;9.32;;
62362;SDS011;48396;48.426;1.500;2023-05-19T04:34:32;20.45;;;8.93;;
62362;SDS011;48396;48.426;1.500;2023-05-19T04:36:59;19.88;;;7.70;;
62362;SDS011;48396;48.426;1.500;2023-05-19T04:39:25;22.05;;;9.20;;
62362;SDS011;48396;48.426;1.500;2023-05-19T04:41:50;18.45;;;8.50;;
62362;SDS011;48396;48.426;1.500;2023-05-19T04:44:18;22.42;;;8.52;;
62362;SDS011;48396;48.426;1.500;2023-05-19T04:46:44;18.20;;;8.13;;
62362;SDS011;48396;48.426;1.500;2023-05-19T04:49:09;21.02;;;8.77;;
62362;SDS011;48396;48.426;1.500;2023-05-19T04:51:38;20.33;;;8.30;;
62362;SDS011;48396;48.426;1.500;2023-05-19T04:54:06;20.33;;;8.90;;
62362;SDS011;48396;48.426;1.500;2023-05-19T04:56:31;20.90;;;8.45;;
62362;SDS011;48396;48.426;1.500;2023-05-19T04:58:57;22.42;;;9.48;;
62362;SDS011;48396;48.426;1.500;2023-05-19T05:01:23;20.30;;;8.00;;
62362;SDS011;48396;48.426;1.500;2023-05-19T05:03:50;20.65;;;8.25;;
62362;SDS011;48396;48.426;1.500;2023-05-19T05:06:19;23.48;;;8.80;;
62362;SDS011;48396;48.426;1.500;2023-05-19T05:08:45;20.20;;;8.43;;
62362;SDS011;48396;48.426;1.500;2023-05-19T05:11:10;20.13;;;8.15;;
62362;SDS011;48396;48.426;1.500;2023-05-19T05:13:36;20.80;;;8.90;;
62362;SDS011;48396;48.426;1.500;2023-05-19T05:16:02;21.95;;;9.55;;
62362;SDS011;48396;48.426;1.500;2023-05-19T05:18:31;20.38;;;8.43;;
62362;SDS011;48396;48.426;1.500;2023-05-19T05:20:57;23.48;;;8.85;;
62362;SDS011;48396;48.426;1.500;2023-05-19T05:23:23;21.52;;;8.98;;
62362;SDS011;48396;48.426;1.500;2023-05-19T05:25:48;19.50;;;8.57;;
62362;SDS011;48396;48.426;1.500;2023-05-19T05:28:14;21.42;;;8.80;;
62362;SDS011;48396;48.426;1.500;2023-05-19T05:30:40;20.52;;;8.25;;
62362;SDS011;48396;48.426;1.500;2023-05-19T05:33:07;18.85;;;8.13;;
62362;SDS011;48396;48.426;1.500;2023-05-19T05:35:33;21.85;;;8.38;;
62362;SDS011;48396;48.426;1.500;2023-05-19T05:37:58;20.85;;;8.68;;
62362;SDS011;48396;48.426;1.500;2023-05-19T05:40:25;19.55;;;8.65;;
62362;SDS011;48396;48.426;1.500;2023-05-19T05:42:51;22.85;;;8.68;;
62362;SDS011;48396;48.426;1.500;2023-05-19T05:45:19;19.23;;;8.20;;
62362;SDS011;48396;48.426;1.500;2023-05-19T05:47:46;21.48;;;8.57;;
62362;SDS011;48396;48.426;1.500;2023-05-19T05:50:12;20.90;;;8.38;;
62362;SDS011;48396;48.426;1.500;2023-05-19T05:52:38;22.65;;;8.27;;
62362;SDS011;48396;48.426;1.500;2023-05-19T05:55:06;19.02;;;7.65;;
62362;SDS011;48396;48.426;1.500;2023-05-19T05:57:32;19.70;;;8.52;;
62362;SDS011;48396;48.426;1.500;2023-05-19T06:00:01;22.27;;;9.02;;
62362;SDS011;48396;48.426;1.500;2023-05-19T06:02:31;23.73;;;9.32;;
62362;SDS011;48396;48.426;1.500;2023-05-19T06:04:56;19.98;;;8.73;;
62362;SDS011;48396;48.426;1.500;2023-05-19T06:07:22;20.67;;;8.35;;
62362;SDS011;48396;48.426;1.500;2023-05-19T06:09:48;19.90;;;8.18;;
62362;SDS011;48396;48.426;1.500;2023-05-19T06:12:14;20.55;;;8.45;;
62362;SDS011;48396;48.426;1.500;2023-05-19T06:14:39;19.88;;;8.73;;
62362;SDS011;48396;48.426;1.500;2023-05-19T06:17:05;18.73;;;8.68;;
62362;SDS011;48396;48.426;1.500;2023-05-19T06:19:30;17.80;;;7.82;;
62362;SDS011;48396;48.426;1.500;2023-05-19T06:21:56;21.58;;;8.52;;
62362;SDS011;48396;48.426;1.500;2023-05-19T06:24:21;23.20;;;8.80;;
62362;SDS011;48396;48.426;1.500;2023-05-19T06:27:05;19.38;;;8.55;;
62362;SDS011;48396;48.426;1.500;2023-05-19T06:29:31;23.23;;;9.25;;
62362;SDS011;48396;48.426;1.500;2023-05-19T06:31:57;25.45;;;9.77;;
62362;SDS011;48396;48.426;1.500;2023-05-19T06:34:23;22.73;;;8.70;;
62362;SDS011;48396;48.426;1.500;2023-05-19T06:36:48;20.95;;;8.18;;
62362;SDS011;48396;48.426;1.500;2023-05-19T06:39:14;20.05;;;8.38;;
62362;SDS011;48396;48.426;1.500;2023-05-19T06:41:40;21.52;;;8.18;;
62362;SDS011;48396;48.426;1.500;2023-05-19T06:44:06;16.85;;;7.78;;
62362;SDS011;48396;48.426;1.500;2023-05-19T06:46:33;20.73;;;8.95;;
62362;SDS011;48396;48.426;1.500;2023-05-19T06:48:58;20.17;;;8.40;;
62362;SDS011;48396;48.426;1.500;2023-05-19T06:51:43;19.45;;;8.25;;
62362;SDS011;48396;48.426;1.500;2023-05-19T06:54:08;21.15;;;8.55;;
62362;SDS011;48396;48.426;1.500;2023-05-19T06:56:36;17.77;;;8.45;;
62362;SDS011;48396;48.426;1.500;2023-05-19T06:59:02;25.88;;;9.13;;
62362;SDS011;48396;48.426;1.500;2023-05-19T07:01:28;130.10;;;24.55;;
62362;SDS011;48396;48.426;1.500;2023-05-19T07:03:54;21.05;;;8.90;;
62362;SDS011;48396;48.426;1.500;2023-05-19T07:06:19;18.08;;;7.65;;
62362;SDS011;48396;48.426;1.500;2023-05-19T07:11:30;17.30;;;7.35;;
62362;SDS011;48396;48.426;1.500;2023-05-19T07:13:55;17.98;;;7.78;;
62362;SDS011;48396;48.426;1.500;2023-05-19T07:16:21;20.02;;;8.63;;
62362;SDS011;48396;48.426;1.500;2023-05-19T07:19:05;17.85;;;8.00;;
62362;SDS011;48396;48.426;1.500;2023-05-19T07:21:31;17.38;;;7.93;;
62362;SDS011;48396;48.426;1.500;2023-05-19T07:23:56;20.15;;;7.95;;
62362;SDS011;48396;48.426;1.500;2023-05-19T07:26:22;18.88;;;8.52;;
62362;SDS011;48396;48.426;1.500;2023-05-19T07:28:47;22.50;;;8.45;;
62362;SDS011;48396;48.426;1.500;2023-05-19T07:31:13;19.63;;;7.38;;
62362;SDS011;48396;48.426;1.500;2023-05-19T07:33:39;21.50;;;9.02;;
62362;SDS011;48396;48.426;1.500;2023-05-19T07:36:04;22.35;;;8.15;;
62362;SDS011;48396;48.426;1.500;2023-05-19T07:38:30;19.92;;;8.38;;
62362;SDS011;48396;48.426;1.500;2023-05-19T07:40:58;18.55;;;7.38;;
62362;SDS011;48396;48.426;1.500;2023-05-19T07:43:25;20.67;;;9.35;;
62362;SDS011;48396;48.426;1.500;2023-05-19T07:46:09;18.13;;;8.30;;
62362;SDS011;48396;48.426;1.500;2023-05-19T07:48:34;21.15;;;8.13;;
62362;SDS011;48396;48.426;1.500;2023-05-19T07:51:01;17.85;;;7.57;;
62362;SDS011;48396;48.426;1.500;2023-05-19T07:53:26;18.80;;;7.20;;
62362;SDS011;48396;48.426;1.500;2023-05-19T07:55:52;21.30;;;8.68;;
62362;SDS011;48396;48.426;1.500;2023-05-19T07:58:17;18.42;;;7.97;;
62362;SDS011;48396;48.426;1.500;2023-05-19T08:00:43;20.17;;;7.93;;
62362;SDS011;48396;48.426;1.500;2023-05-19T08:03:10;18.08;;;7.90;;
62362;SDS011;48396;48.426;1.500;2023-05-19T08:05:54;16.58;;;7.13;;
62362;SDS011;48396;48.426;1.500;2023-05-19T08:08:20;20.63;;;7.20;;
62362;SDS011;48396;48.426;1.500;2023-05-19T08:10:45;18.20;;;7.55;;
62362;SDS011;48396;48.426;1.500;2023-05-19T08:13:11;18.75;;;7.90;;
62362;SDS011;48396;48.426;1.500;2023-05-19T08:15:37;17.98;;;7.20;;
62362;SDS011;48396;48.426;1.500;2023-05-19T08:18:03;18.17;;;7.28;;
62362;SDS011;48396;48.426;1.500;2023-05-19T08:20:29;18.23;;;7.53;;
62362;SDS011;48396;48.426;1.500;2023-05-19T08:22:55;18.48;;;8.40;;
62362;SDS011;48396;48.426;1.500;2023-05-19T08:25:20;17.98;;;7.50;;
62362;SDS011;48396;48.426;1.500;2023-05-19T08:27:46;16.73;;;7.43;;
62362;SDS011;48396;48.426;1.500;2023-05-19T08:30:12;19.02;;;7.22;;
62362;SDS011;48396;48.426;1.500;2023-05-19T08:32:37;14.77;;;6.43;;
62362;SDS011;48396;48.426;1.500;2023-05-19T08:35:03;18.50;;;7.53;;
62362;SDS011;48396;48.426;1.500;2023-05-19T08:37:29;17.02;;;7.97;;
62362;SDS011;48396;48.426;1.500;2023-05-19T08:39:54;18.73;;;7.40;;
62362;SDS011;48396;48.426;1.500;2023-05-19T08:42:21;16.98;;;7.00;;
62362;SDS011;48396;48.426;1.500;2023-05-19T08:44:46;16.95;;;7.00;;
62362;SDS011;48396;48.426;1.500;2023-05-19T08:47:12;16.85;;;7.03;;
62362;SDS011;48396;48.426;1.500;2023-05-19T08:49:42;17.60;;;7.03;;
62362;SDS011;48396;48.426;1.500;2023-05-19T08:52:21;17.40;;;7.07;;
62362;SDS011;48396;48.426;1.500;2023-05-19T08:55:08;16.55;;;7.30;;
62362;SDS011;48396;48.426;1.500;2023-05-19T08:57:37;16.67;;;7.15;;
62362;SDS011;48396;48.426;1.500;2023-05-19T09:00:04;20.15;;;7.07;;
62362;SDS011;48396;48.426;1.500;2023-05-19T09:02:36;14.90;;;6.05;;
62362;SDS011;48396;48.426;1.500;2023-05-19T09:05:02;20.52;;;7.68;;
62362;SDS011;48396;48.426;1.500;2023-05-19T09:07:30;13.98;;;5.88;;
62362;SDS011;48396;48.426;1.500;2023-05-19T09:09:58;15.02;;;6.65;;
62362;SDS011;48396;48.426;1.500;2023-05-19T09:12:25;16.65;;;6.38;;
62362;SDS011;48396;48.426;1.500;2023-05-19T09:14:51;17.38;;;7.07;;
62362;SDS011;48396;48.426;1.500;2023-05-19T09:17:17;16.63;;;6.13;;
62362;SDS011;48396;48.426;1.500;2023-05-19T09:19:45;13.07;;;5.55;;
62362;SDS011;48396;48.426;1.500;2023-05-19T09:22:14;16.77;;;5.93;;
62362;SDS011;48396;48.426;1.500;2023-05-19T09:24:43;12.05;;;5.13;;
62362;SDS011;48396;48.426;1.500;2023-05-19T09:27:09;15.93;;;5.95;;
62362;SDS011;48396;48.426;1.500;2023-05-19T09:29:38;14.73;;;5.68;;
62362;SDS011;48396;48.426;1.500;2023-05-19T09:32:04;14.55;;;5.70;;
62362;SDS011;48396;48.426;1.500;2023-05-19T09:34:48;14.15;;;5.55;;
62362;SDS011;48396;48.426;1.500;2023-05-19T09:37:15;14.82;;;6.45;;
62362;SDS011;48396;48.426;1.500;2023-05-19T09:39:40;16.67;;;5.60;;
62362;SDS011;48396;48.426;1.500;2023-05-19T09:42:13;13.07;;;5.50;;
62362;SDS011;48396;48.426;1.500;2023-05-19T09:44:38;15.30;;;5.57;;
62362;SDS011;48396;48.426;1.500;2023-05-19T09:47:06;14.02;;;6.00;;
62362;SDS011;48396;48.426;1.500;2023-05-19T09:49:33;12.85;;;5.78;;
62362;SDS011;48396;48.426;1.500;2023-05-19T09:52:00;12.82;;;5.63;;
62362;SDS011;48396;48.426;1.500;2023-05-19T09:54:27;14.27;;;4.80;;
62362;SDS011;48396;48.426;1.500;2023-05-19T09:59:25;14.43;;;4.88;;
62362;SDS011;48396;48.426;1.500;2023-05-19T10:01:56;12.82;;;4.95;;
62362;SDS011;48396;48.426;1.500;2023-05-19T10:04:22;17.10;;;5.28;;
62362;SDS011;48396;48.426;1.500;2023-05-19T10:06:52;16.33;;;6.18;;
62362;SDS011;48396;48.426;1.500;2023-05-19T10:09:22;11.18;;;4.85;;
62362;SDS011;48396;48.426;1.500;2023-05-19T10:11:51;11.77;;;5.10;;
62362;SDS011;48396;48.426;1.500;2023-05-19T10:14:27;17.15;;;5.25;;
62362;SDS011;48396;48.426;1.500;2023-05-19T10:16:54;14.77;;;5.38;;
62362;SDS011;48396;48.426;1.500;2023-05-19T10:19:24;11.75;;;4.72;;
62362;SDS011;48396;48.426;1.500;2023-05-19T10:21:50;12.65;;;4.90;;
62362;SDS011;48396;48.426;1.500;2023-05-19T10:24:17;16.33;;;5.45;;
62362;SDS011;48396;48.426;1.500;2023-05-19T10:26:44;13.95;;;5.25;;
62362;SDS011;48396;48.426;1.500;2023-05-19T10:29:22;10.65;;;4.85;;
62362;SDS011;48396;48.426;1.500;2023-05-19T10:31:52;15.63;;;5.57;;
62362;SDS011;48396;48.426;1.500;2023-05-19T10:34:33;12.57;;;5.50;;
62362;SDS011;48396;48.426;1.500;2023-05-19T10:37:12;16.52;;;4.80;;
62362;SDS011;48396;48.426;1.500;2023-05-19T10:39:48;11.20;;;4.13;;
62362;SDS011;48396;48.426;1.500;2023-05-19T10:42:15;17.75;;;6.25;;
62362;SDS011;48396;48.426;1.500;2023-05-19T10:45:18;14.55;;;4.68;;
62362;SDS011;48396;48.426;1.500;2023-05-19T10:48:03;14.98;;;5.43;;
62362;SDS011;48396;48.426;1.500;2023-05-19T10:50:34;12.60;;;4.95;;
62362;SDS011;48396;48.426;1.500;2023-05-19T10:53:01;12.50;;;4.72;;
62362;SDS011;48396;48.426;1.500;2023-05-19T10:58:26;10.35;;;4.60;;
62362;SDS011;48396;48.426;1.500;2023-05-19T11:01:16;11.95;;;4.80;;
62362;SDS011;48396;48.426;1.500;2023-05-19T11:04:05;14.82;;;5.10;;
62362;SDS011;48396;48.426;1.500;2023-05-19T11:06:34;13.32;;;4.55;;
62362;SDS011;48396;48.426;1.500;2023-05-19T11:09:13;12.65;;;5.20;;
62362;SDS011;48396;48.426;1.500;2023-05-19T11:11:46;11.77;;;4.18;;
62362;SDS011;48396;48.426;1.500;2023-05-19T11:14:14;15.48;;;4.68;;
62362;SDS011;48396;48.426;1.500;2023-05-19T11:16:44;14.00;;;4.30;;
62362;SDS011;48396;48.426;1.500;2023-05-19T11:19:18;15.55;;;4.43;;
62362;SDS011;48396;48.426;1.500;2023-05-19T11:21:49;15.90;;;4.50;;
62362;SDS011;48396;48.426;1.500;2023-05-19T11:27:23;10.63;;;4.28;;
62362;SDS011;48396;48.426;1.500;2023-05-19T11:32:27;11.48;;;4.10;;
62362;SDS011;48396;48.426;1.500;2023-05-19T11:34:55;11.32;;;3.75;;
62362;SDS011;48396;48.426;1.500;2023-05-19T11:37:21;13.13;;;4.55;;
62362;SDS011;48396;48.426;1.500;2023-05-19T11:39:48;13.25;;;4.47;;
62362;SDS011;48396;48.426;1.500;2023-05-19T11:42:13;14.60;;;4.40;;
62362;SDS011;48396;48.426;1.500;2023-05-19T11:44:40;10.50;;;3.78;;
62362;SDS011;48396;48.426;1.500;2023-05-19T11:47:09;11.50;;;4.35;;
62362;SDS011;48396;48.426;1.500;2023-05-19T11:49:35;10.40;;;4.20;;
62362;SDS011;48396;48.426;1.500;2023-05-19T11:52:00;10.80;;;3.78;;
62362;SDS011;48396;48.426;1.500;2023-05-19T11:54:30;8.30;;;3.50;;
62362;SDS011;48396;48.426;1.500;2023-05-19T11:57:00;11.95;;;4.07;;
62362;SDS011;48396;48.426;1.500;2023-05-19T11:59:33;10.65;;;3.55;;
62362;SDS011;48396;48.426;1.500;2023-05-19T12:02:01;12.65;;;4.40;;
62362;SDS011;48396;48.426;1.500;2023-05-19T12:04:28;10.10;;;3.45;;
62362;SDS011;48396;48.426;1.500;2023-05-19T12:06:55;9.45;;;3.17;;
62362;SDS011;48396;48.426;1.500;2023-05-19T12:09:28;11.52;;;3.90;;
62362;SDS011;48396;48.426;1.500;2023-05-19T12:11:54;10.35;;;3.90;;
62362;SDS011;48396;48.426;1.500;2023-05-19T12:14:19;11.55;;;4.03;;
62362;SDS011;48396;48.426;1.500;2023-05-19T12:16:45;10.10;;;3.58;;
62362;SDS011;48396;48.426;1.500;2023-05-19T12:19:11;9.82;;;3.60;;
62362;SDS011;48396;48.426;1.500;2023-05-19T12:21:36;9.02;;;3.70;;
62362;SDS011;48396;48.426;1.500;2023-05-19T12:24:02;9.75;;;4.20;;
62362;SDS011;48396;48.426;1.500;2023-05-19T12:26:29;8.52;;;3.53;;
62362;SDS011;48396;48.426;1.500;2023-05-19T12:28:55;10.80;;;3.60;;
62362;SDS011;48396;48.426;1.500;2023-05-19T12:31:22;7.15;;;3.25;;
62362;SDS011;48396;48.426;1.500;2023-05-19T12:33:48;8.57;;;3.30;;
62362;SDS011;48396;48.426;1.500;2023-05-19T12:36:17;7.90;;;3.10;;
62362;SDS011;48396;48.426;1.500;2023-05-19T12:38:43;8.45;;;3.05;;
62362;SDS011;48396;48.426;1.500;2023-05-19T12:41:10;9.77;;;3.20;;
62362;SDS011;48396;48.426;1.500;2023-05-19T12:43:39;10.82;;;3.67;;
62362;SDS011;48396;48.426;1.500;2023-05-19T12:46:08;10.45;;;3.67;;
62362;SDS011;48396;48.426;1.500;2023-05-19T12:48:43;8.52;;;3.22;;
62362;SDS011;48396;48.426;1.500;2023-05-19T12:51:10;7.28;;;2.85;;
62362;SDS011;48396;48.426;1.500;2023-05-19T12:53:42;7.63;;;3.22;;
62362;SDS011;48396;48.426;1.500;2023-05-19T12:56:12;9.85;;;3.63;;
62362;SDS011;48396;48.426;1.500;2023-05-19T12:58:38;13.55;;;3.72;;
62362;SDS011;48396;48.426;1.500;2023-05-19T13:01:05;8.68;;;3.70;;
62362;SDS011;48396;48.426;1.500;2023-05-19T13:03:31;12.77;;;3.85;;
62362;SDS011;48396;48.426;1.500;2023-05-19T13:06:03;9.45;;;3.00;;
62362;SDS011;48396;48.426;1.500;2023-05-19T13:08:28;9.38;;;3.45;;
62362;SDS011;48396;48.426;1.500;2023-05-19T13:10:54;9.43;;;3.42;;
62362;SDS011;48396;48.426;1.500;2023-05-19T13:13:20;7.15;;;2.88;;
62362;SDS011;48396;48.426;1.500;2023-05-19T13:15:46;10.65;;;3.75;;
62362;SDS011;48396;48.426;1.500;2023-05-19T13:18:14;9.32;;;3.47;;
62362;SDS011;48396;48.426;1.500;2023-05-19T13:20:41;7.32;;;3.30;;
62362;SDS011;48396;48.426;1.500;2023-05-19T13:23:11;6.63;;;3.28;;
62362;SDS011;48396;48.426;1.500;2023-05-19T13:25:38;11.10;;;3.50;;
62362;SDS011;48396;48.426;1.500;2023-05-19T13:28:05;9.00;;;3.38;;
62362;SDS011;48396;48.426;1.500;2023-05-19T13:30:34;7.97;;;3.10;;
62362;SDS011;48396;48.426;1.500;2023-05-19T13:33:02;6.88;;;2.80;;
62362;SDS011;48396;48.426;1.500;2023-05-19T13:35:28;12.52;;;3.67;;
62362;SDS011;48396;48.426;1.500;2023-05-19T13:37:54;9.52;;;3.78;;
62362;SDS011;48396;48.426;1.500;2023-05-19T13:40:20;10.82;;;3.80;;
62362;SDS011;48396;48.426;1.500;2023-05-19T13:42:47;8.73;;;3.15;;
62362;SDS011;48396;48.426;1.500;2023-05-19T13:45:13;11.13;;;3.50;;
62362;SDS011;48396;48.426;1.500;2023-05-19T13:47:39;8.30;;;3.53;;
62362;SDS011;48396;48.426;1.500;2023-05-19T13:50:04;11.60;;;3.72;;
62362;SDS011;48396;48.426;1.500;2023-05-19T13:52:30;8.35;;;3.13;;
62362;SDS011;48396;48.426;1.500;2023-05-19T13:55:15;10.77;;;3.45;;
62362;SDS011;48396;48.426;1.500;2023-05-19T13:57:40;8.85;;;3.08;;
62362;SDS011;48396;48.426;1.500;2023-05-19T14:00:06;10.70;;;3.42;;
62362;SDS011;48396;48.426;1.500;2023-05-19T14:02:34;9.02;;;3.30;;
62362;SDS011;48396;48.426;1.500;2023-05-19T14:05:01;7.35;;;2.95;;
62362;SDS011;48396;48.426;1.500;2023-05-19T14:07:28;10.52;;;3.20;;
62362;SDS011;48396;48.426;1.500;2023-05-19T14:09:54;9.90;;;3.22;;
62362;SDS011;48396;48.426;1.500;2023-05-19T14:12:20;10.57;;;3.78;;
62362;SDS011;48396;48.426;1.500;2023-05-19T14:14:45;7.18;;;3.30;;
62362;SDS011;48396;48.426;1.500;2023-05-19T14:17:12;10.40;;;3.35;;
62362;SDS011;48396;48.426;1.500;2023-05-19T14:19:38;11.77;;;3.15;;
62362;SDS011;48396;48.426;1.500;2023-05-19T14:22:04;8.40;;;3.00;;
62362;SDS011;48396;48.426;1.500;2023-05-19T14:24:29;10.02;;;3.60;;
62362;SDS011;48396;48.426;1.500;2023-05-19T14:26:55;7.40;;;3.22;;
62362;SDS011;48396;48.426;1.500;2023-05-19T14:29:20;7.57;;;3.28;;
62362;SDS011;48396;48.426;1.500;2023-05-19T14:31:46;7.90;;;3.17;;
62362;SDS011;48396;48.426;1.500;2023-05-19T14:34:12;5.47;;;3.15;;
62362;SDS011;48396;48.426;1.500;2023-05-19T14:36:41;10.98;;;3.30;;
62362;SDS011;48396;48.426;1.500;2023-05-19T14:39:07;8.98;;;3.05;;
62362;SDS011;48396;48.426;1.500;2023-05-19T14:41:51;10.50;;;3.08;;
62362;SDS011;48396;48.426;1.500;2023-05-19T14:44:17;7.55;;;3.38;;
62362;SDS011;48396;48.426;1.500;2023-05-19T14:46:43;8.85;;;3.25;;
62362;SDS011;48396;48.426;1.500;2023-05-19T14:49:08;9.48;;;3.33;;
62362;SDS011;48396;48.426;1.500;2023-05-19T14:51:34;8.85;;;3.25;;
62362;SDS011;48396;48.426;1.500;2023-05-19T14:53:59;8.98;;;2.92;;
62362;SDS011;48396;48.426;1.500;2023-05-19T14:56:26;7.85;;;3.00;;
62362;SDS011;48396;48.426;1.500;2023-05-19T14:58:51;4.93;;;2.95;;
62362;SDS011;48396;48.426;1.500;2023-05-19T15:01:17;7.85;;;3.03;;
62362;SDS011;48396;48.426;1.500;2023-05-19T15:03:43;7.80;;;2.85;;
62362;SDS011;48396;48.426;1.500;2023-05-19T15:06:08;8.52;;;3.13;;
62362;SDS011;48396;48.426;1.500;2023-05-19T15:08:35;8.40;;;3.00;;
62362;SDS011;48396;48.426;1.500;2023-05-19T15:11:19;9.65;;;3.65;;
62362;SDS011;48396;48.426;1.500;2023-05-19T15:13:44;8.10;;;3.05;;